Time;durP1;ratioP1;P1;durP2;ratioP2;P2;SDS_P1;SDS_P2;PMS_P1;PMS_P2;Temp;Humidity;BMP_temperature;BMP_pressure;BME280_temperature;BME280_humidity;BME280_pressure;Samples;Min_cycle;Max_cycle;Signal;HPM_P1;HPM_P2
2022/12/28 00:00:22;;;;;;;13.77;6.25;;;;;;;;;;5046596;23;20046;-64
2022/12/28 00:02:48;;;;;;;19.23;6.70;;;;;;;;;;5029365;28;20124;-65
2022/12/28 00:05:14;;;;;;;13.48;6.22;;;;;;;;;;5028248;28;20064;-67
2022/12/28 00:07:40;;;;;;;19.05;7.22;;;;;;;;;;5029354;28;20429;-65
2022/12/28 00:10:06;;;;;;;13.70;6.30;;;;;;;;;;5044710;28;20113;-65
2022/12/28 00:12:32;;;;;;;16.63;6.32;;;;;;;;;;5044731;28;20030;-65
2022/12/28 00:14:58;;;;;;;19.35;6.53;;;;;;;;;;5028460;28;20407;-65
2022/12/28 00:17:24;;;;;;;13.25;6.05;;;;;;;;;;5045368;28;20025;-65
2022/12/28 00:19:50;;;;;;;15.48;6.30;;;;;;;;;;5045220;28;20029;-64
2022/12/28 00:22:16;;;;;;;14.68;6.50;;;;;;;;;;5030280;28;20474;-64
2022/12/28 00:24:42;;;;;;;15.15;6.55;;;;;;;;;;5044641;28;20053;-66
2022/12/28 00:27:08;;;;;;;16.00;6.32;;;;;;;;;;5029730;28;20044;-66
2022/12/28 00:29:34;;;;;;;14.98;6.60;;;;;;;;;;5030029;28;20030;-64
2022/12/28 00:32:00;;;;;;;13.63;5.95;;;;;;;;;;5029878;28;20029;-64
2022/12/28 00:34:26;;;;;;;20.23;9.30;;;;;;;;;;5029131;28;20018;-65
2022/12/28 00:36:53;;;;;;;15.02;6.40;;;;;;;;;;5030076;28;20493;-64
2022/12/28 00:39:19;;;;;;;14.18;6.05;;;;;;;;;;5029978;28;20037;-65
2022/12/28 00:41:45;;;;;;;15.85;6.20;;;;;;;;;;5029866;28;20045;-65
2022/12/28 00:44:11;;;;;;;17.00;6.57;;;;;;;;;;5029105;28;20468;-65
2022/12/28 00:46:37;;;;;;;16.80;6.53;;;;;;;;;;5030064;28;20052;-65
2022/12/28 00:49:03;;;;;;;15.55;6.38;;;;;;;;;;5028244;28;20444;-63
2022/12/28 00:51:29;;;;;;;14.63;7.20;;;;;;;;;;5028579;28;20572;-66
2022/12/28 00:53:55;;;;;;;15.82;6.15;;;;;;;;;;5029093;28;20064;-66
2022/12/28 00:56:22;;;;;;;13.40;6.32;;;;;;;;;;5029804;28;20052;-66
2022/12/28 00:58:48;;;;;;;14.30;6.32;;;;;;;;;;5029481;28;20045;-66
2022/12/28 01:01:15;;;;;;;14.13;5.95;;;;;;;;;;5030329;28;20021;-65
2022/12/28 01:03:41;;;;;;;14.75;6.40;;;;;;;;;;5031278;28;20059;-64
2022/12/28 01:06:08;;;;;;;18.25;6.53;;;;;;;;;;5033283;28;20025;-64
2022/12/28 01:08:38;;;;;;;15.32;6.80;;;;;;;;;;5033179;28;20021;-66
2022/12/28 01:11:07;;;;;;;13.88;6.95;;;;;;;;;;5033158;28;20029;-65
2022/12/28 01:13:33;;;;;;;13.23;6.72;;;;;;;;;;5032143;28;20029;-65
2022/12/28 01:15:59;;;;;;;15.80;7.20;;;;;;;;;;5033147;28;20111;-65
2022/12/28 01:18:25;;;;;;;15.73;7.70;;;;;;;;;;5033205;28;20029;-65
2022/12/28 01:20:51;;;;;;;15.93;7.28;;;;;;;;;;5033051;28;20030;-66
2022/12/28 01:23:17;;;;;;;14.57;7.35;;;;;;;;;;5031016;28;20156;-65
2022/12/28 01:25:43;;;;;;;16.77;7.40;;;;;;;;;;5033016;28;20458;-65
2022/12/28 01:28:09;;;;;;;17.02;7.55;;;;;;;;;;5033109;28;20029;-65
2022/12/28 01:30:35;;;;;;;16.67;8.25;;;;;;;;;;5032947;28;20109;-65
2022/12/28 01:33:01;;;;;;;15.00;7.07;;;;;;;;;;5032315;28;20470;-65
2022/12/28 01:35:27;;;;;;;16.10;6.97;;;;;;;;;;5032934;28;20022;-66
2022/12/28 01:37:53;;;;;;;17.15;7.65;;;;;;;;;;5033057;28;20052;-65
2022/12/28 01:40:19;;;;;;;16.13;7.97;;;;;;;;;;5031395;28;20171;-65
2022/12/28 01:42:45;;;;;;;18.10;7.43;;;;;;;;;;5032686;28;20025;-65
2022/12/28 01:45:15;;;;;;;15.25;7.35;;;;;;;;;;5031926;28;20025;-65
2022/12/28 01:47:41;;;;;;;14.27;7.43;;;;;;;;;;5032707;28;20017;-64
2022/12/28 01:50:09;;;;;;;15.98;7.30;;;;;;;;;;5032290;28;20491;-64
2022/12/28 01:52:38;;;;;;;14.25;6.75;;;;;;;;;;5031166;28;20065;-65
2022/12/28 01:55:13;;;;;;;16.27;7.82;;;;;;;;;;5030561;28;20393;-66
2022/12/28 01:58:06;;;;;;;16.15;7.10;;;;;;;;;;5032260;28;20028;-65
2022/12/28 02:00:32;;;;;;;17.05;7.72;;;;;;;;;;5029458;28;20413;-65
2022/12/28 02:03:04;;;;;;;14.63;7.68;;;;;;;;;;5030704;28;20365;-63
2022/12/28 02:05:36;;;;;;;16.67;7.78;;;;;;;;;;5032199;28;20022;-65
2022/12/28 02:08:06;;;;;;;14.85;7.80;;;;;;;;;;5031010;28;20442;-66
2022/12/28 02:10:33;;;;;;;16.63;8.00;;;;;;;;;;5030975;28;20053;-66
2022/12/28 02:12:59;;;;;;;16.55;8.30;;;;;;;;;;5031717;28;20025;-66
2022/12/28 02:15:25;;;;;;;16.45;7.72;;;;;;;;;;5030515;28;20030;-66
2022/12/28 02:17:51;;;;;;;16.70;8.43;;;;;;;;;;5030840;28;20112;-66
2022/12/28 02:20:18;;;;;;;22.02;11.25;;;;;;;;;;5032018;28;20489;-65
2022/12/28 02:22:49;;;;;;;16.80;11.10;;;;;;;;;;5031983;28;20030;-65
2022/12/28 02:25:34;;;;;;;18.25;11.85;;;;;;;;;;5031126;28;20034;-65
2022/12/28 02:28:19;;;;;;;16.92;10.90;;;;;;;;;;5032303;28;20097;-65
2022/12/28 02:30:52;;;;;;;21.35;13.18;;;;;;;;;;5031866;28;20022;-65
2022/12/28 02:33:24;;;;;;;15.73;10.93;;;;;;;;;;5031233;28;20029;-65
2022/12/28 02:36:03;;;;;;;18.25;12.00;;;;;;;;;;5032021;28;20037;-66
2022/12/28 02:38:29;;;;;;;16.58;11.60;;;;;;;;;;5031499;28;20392;-66
2022/12/28 02:41:02;;;;;;;18.63;12.07;;;;;;;;;;5030473;28;20116;-66
2022/12/28 02:43:28;;;;;;;15.95;11.30;;;;;;;;;;5029622;28;20030;-66
2022/12/28 02:51:26;;;;;;;20.27;12.35;;;;;;;;;;5031552;28;20064;-65
2022/12/28 02:53:58;;;;;;;18.27;11.48;;;;;;;;;;5029363;28;20037;-65
2022/12/28 02:56:51;;;;;;;19.83;11.63;;;;;;;;;;5031496;28;20025;-65
2022/12/28 02:59:17;;;;;;;17.73;11.10;;;;;;;;;;5031035;28;20119;-66
2022/12/28 03:01:58;;;;;;;15.60;10.10;;;;;;;;;;5031337;28;20041;-65
2022/12/28 03:04:24;;;;;;;16.30;10.98;;;;;;;;;;5030701;28;20147;-64
2022/12/28 03:09:51;;;;;;;18.35;10.38;;;;;;;;;;5031079;28;20040;-65
2022/12/28 03:12:22;;;;;;;18.48;10.50;;;;;;;;;;5031135;28;20034;-65
2022/12/28 03:14:52;;;;;;;16.60;10.00;;;;;;;;;;5030660;28;20026;-65
2022/12/28 03:31:14;;;;;;;15.82;9.00;;;;;;;;;;5030932;28;20060;-65
2022/12/28 03:33:48;;;;;;;17.77;10.20;;;;;;;;;;5030246;28;20036;-66
2022/12/28 03:36:33;;;;;;;17.42;9.93;;;;;;;;;;5030836;28;20030;-65
2022/12/28 03:39:05;;;;;;;16.45;9.38;;;;;;;;;;5031130;28;20085;-65
2022/12/28 03:41:34;;;;;;;14.85;7.40;;;;;;;;;;5031498;28;20076;-66
2022/12/28 03:44:05;;;;;;;14.60;7.53;;;;;;;;;;5029912;28;20037;-66
2022/12/28 03:46:35;;;;;;;18.80;8.73;;;;;;;;;;5029481;28;20070;-65
2022/12/28 03:49:01;;;;;;;17.55;9.00;;;;;;;;;;5030481;28;20053;-66
2022/12/28 03:51:29;;;;;;;14.80;8.20;;;;;;;;;;5030290;28;20029;-66
2022/12/28 03:53:55;;;;;;;21.88;9.20;;;;;;;;;;5029559;28;20036;-66
2022/12/28 03:56:23;;;;;;;14.18;8.15;;;;;;;;;;5029171;28;20029;-67
2022/12/28 03:58:49;;;;;;;18.52;9.15;;;;;;;;;;5028918;28;20041;-67
2022/12/28 04:01:15;;;;;;;15.57;8.82;;;;;;;;;;5029097;28;20068;-65
2022/12/28 04:03:41;;;;;;;16.85;9.35;;;;;;;;;;5029890;28;20418;-64
2022/12/28 04:06:07;;;;;;;16.27;9.80;;;;;;;;;;5028710;28;20018;-65
2022/12/28 04:08:34;;;;;;;18.00;10.80;;;;;;;;;;5029281;28;20037;-66
2022/12/28 04:11:00;;;;;;;16.00;11.27;;;;;;;;;;5029396;28;20021;-64
2022/12/28 04:13:29;;;;;;;17.40;11.23;;;;;;;;;;5029837;28;20108;-65
2022/12/28 04:16:00;;;;;;;19.38;12.30;;;;;;;;;;5029206;28;20113;-66
2022/12/28 04:18:26;;;;;;;21.00;13.45;;;;;;;;;;5029946;28;20446;-65
2022/12/28 04:20:53;;;;;;;18.33;13.93;;;;;;;;;;5028813;28;20021;-65
2022/12/28 04:23:19;;;;;;;18.77;14.80;;;;;;;;;;5029413;28;20034;-65
2022/12/28 04:25:55;;;;;;;18.75;15.35;;;;;;;;;;5030021;28;20029;-66
2022/12/28 04:28:21;;;;;;;19.20;16.10;;;;;;;;;;5029938;28;20361;-64
2022/12/28 04:30:47;;;;;;;23.10;17.23;;;;;;;;;;5030044;28;20032;-65
2022/12/28 04:33:13;;;;;;;20.20;18.10;;;;;;;;;;5028817;28;20040;-64
2022/12/28 04:35:39;;;;;;;38.90;35.92;;;;;;;;;;5031549;28;20026;-62
2022/12/28 04:38:05;;;;;;;48.95;45.50;;;;;;;;;;5033738;28;20028;-64
2022/12/28 04:40:31;;;;;;;51.28;47.95;;;;;;;;;;5033777;28;20033;-63
2022/12/28 04:42:57;;;;;;;49.88;46.58;;;;;;;;;;5033325;28;20033;-63
2022/12/28 04:45:23;;;;;;;53.45;50.05;;;;;;;;;;5013510;28;20451;-65
2022/12/28 04:47:49;;;;;;;55.30;51.72;;;;;;;;;;5013777;28;20129;-64
2022/12/28 04:50:15;;;;;;;57.40;53.78;;;;;;;;;;5013717;28;20033;-62
2022/12/28 04:52:41;;;;;;;60.38;56.55;;;;;;;;;;5029076;28;20080;-62
2022/12/28 04:55:07;;;;;;;60.05;55.97;;;;;;;;;;5013029;28;20117;-64
2022/12/28 04:57:33;;;;;;;60.50;56.03;;;;;;;;;;5028845;28;20061;-62
2022/12/28 04:59:59;;;;;;;59.28;55.47;;;;;;;;;;5013384;28;20077;-64
2022/12/28 05:02:25;;;;;;;57.13;53.33;;;;;;;;;;5013633;28;20057;-64
2022/12/28 05:04:51;;;;;;;62.05;58.05;;;;;;;;;;5027995;28;20522;-62
2022/12/28 05:07:17;;;;;;;63.45;59.25;;;;;;;;;;5013511;28;20032;-62
2022/12/28 05:09:43;;;;;;;62.92;58.97;;;;;;;;;;5028501;28;20018;-63
2022/12/28 05:12:09;;;;;;;63.35;59.35;;;;;;;;;;5013207;28;20056;-62
2022/12/28 05:14:35;;;;;;;65.90;61.75;;;;;;;;;;5028514;28;20083;-64
2022/12/28 05:17:01;;;;;;;65.80;61.60;;;;;;;;;;5013514;28;20022;-63
2022/12/28 05:19:27;;;;;;;65.72;61.03;;;;;;;;;;5013425;28;20489;-63
2022/12/28 05:21:53;;;;;;;65.90;61.83;;;;;;;;;;5012993;28;20104;-62
2022/12/28 05:24:19;;;;;;;65.90;61.65;;;;;;;;;;5012529;28;20044;-63
2022/12/28 05:26:45;;;;;;;64.60;60.50;;;;;;;;;;5011223;28;20551;-60
2022/12/28 05:29:11;;;;;;;65.75;61.10;;;;;;;;;;5012885;28;20114;-63
2022/12/28 05:31:37;;;;;;;66.20;62.10;;;;;;;;;;5013034;28;20105;-63
2022/12/28 05:34:03;;;;;;;65.95;61.83;;;;;;;;;;5012161;28;20065;-64
2022/12/28 05:36:31;;;;;;;65.55;61.13;;;;;;;;;;5028053;28;20121;-64
2022/12/28 05:38:57;;;;;;;62.85;59.03;;;;;;;;;;5012871;28;20447;-65
2022/12/28 05:41:24;;;;;;;63.67;59.33;;;;;;;;;;5012837;28;20034;-65
2022/12/28 05:43:51;;;;;;;61.10;57.20;;;;;;;;;;5019351;28;20440;-64
2022/12/28 05:46:23;;;;;;;64.57;60.35;;;;;;;;;;5031477;28;20025;-62
2022/12/28 05:48:49;;;;;;;63.30;59.00;;;;;;;;;;5032118;28;20669;-62
2022/12/28 05:51:16;;;;;;;63.13;58.92;;;;;;;;;;5031122;28;20068;-64
2022/12/28 05:53:42;;;;;;;64.95;60.70;;;;;;;;;;5031776;28;20482;-62
2022/12/28 05:56:11;;;;;;;63.50;59.35;;;;;;;;;;5032098;28;20033;-63
2022/12/28 05:58:37;;;;;;;64.13;60.13;;;;;;;;;;5032035;28;20079;-61
2022/12/28 06:01:22;;;;;;;63.90;59.60;;;;;;;;;;5041713;23;20046;-62
2022/12/28 06:03:51;;;;;;;60.53;56.00;;;;;;;;;;5012771;28;20062;-65
2022/12/28 06:06:18;;;;;;;60.63;56.42;;;;;;;;;;5013558;28;20018;-65
2022/12/28 06:08:45;;;;;;;63.13;58.65;;;;;;;;;;5028768;28;20026;-65
2022/12/28 06:11:12;;;;;;;63.88;59.70;;;;;;;;;;5013304;28;20076;-61
2022/12/28 06:13:38;;;;;;;65.57;61.38;;;;;;;;;;5012722;28;20026;-60
2022/12/28 06:16:06;;;;;;;64.43;60.15;;;;;;;;;;5013316;28;20030;-63
2022/12/28 06:18:32;;;;;;;64.22;59.83;;;;;;;;;;5013072;28;20057;-61
2022/12/28 06:21:06;;;;;;;64.10;59.45;;;;;;;;;;5011878;28;20034;-61
2022/12/28 06:23:32;;;;;;;67.10;62.30;;;;;;;;;;5011001;28;20052;-62
2022/12/28 06:25:59;;;;;;;65.90;61.50;;;;;;;;;;5013361;28;20026;-64
2022/12/28 06:28:25;;;;;;;65.05;60.50;;;;;;;;;;5013298;28;20485;-63
2022/12/28 06:30:51;;;;;;;62.25;58.00;;;;;;;;;;5012962;28;20049;-63
2022/12/28 06:33:17;;;;;;;62.05;57.65;;;;;;;;;;5012475;28;20072;-61
2022/12/28 06:35:43;;;;;;;64.90;60.35;;;;;;;;;;5013100;28;20030;-61
2022/12/28 06:38:09;;;;;;;63.10;58.80;;;;;;;;;;5021546;28;20049;-60
2022/12/28 06:40:35;;;;;;;66.68;62.17;;;;;;;;;;5023627;28;20389;-62
2022/12/28 06:43:01;;;;;;;66.15;61.58;;;;;;;;;;5018331;28;20079;-60
2022/12/28 06:45:27;;;;;;;63.97;59.78;;;;;;;;;;5012010;28;20028;-63
2022/12/28 06:47:53;;;;;;;60.58;56.47;;;;;;;;;;5011899;28;20421;-64
2022/12/28 06:50:19;;;;;;;62.78;58.53;;;;;;;;;;5012693;28;20022;-62
2022/12/28 06:52:45;;;;;;;61.88;57.47;;;;;;;;;;5011393;28;20482;-61
2022/12/28 06:55:11;;;;;;;63.45;59.15;;;;;;;;;;5012037;28;20041;-63
2022/12/28 06:57:37;;;;;;;58.83;54.85;;;;;;;;;;5012702;28;20052;-61
2022/12/28 07:00:03;;;;;;;61.67;57.28;;;;;;;;;;5011619;28;20042;-64
2022/12/28 07:02:29;;;;;;;61.47;57.38;;;;;;;;;;5012470;28;20076;-62
2022/12/28 07:04:55;;;;;;;65.00;60.50;;;;;;;;;;5010592;28;20429;-62
2022/12/28 07:07:21;;;;;;;66.45;61.85;;;;;;;;;;5012546;28;20096;-62
2022/12/28 07:09:47;;;;;;;67.15;62.65;;;;;;;;;;5012450;28;20029;-62
2022/12/28 07:12:13;;;;;;;65.35;60.70;;;;;;;;;;5012530;28;20022;-64
2022/12/28 07:14:39;;;;;;;64.55;60.17;;;;;;;;;;5011637;28;20053;-62
2022/12/28 07:17:05;;;;;;;62.00;57.80;;;;;;;;;;5012191;28;20520;-64
2022/12/28 07:19:31;;;;;;;62.35;58.05;;;;;;;;;;5011172;28;20030;-62
2022/12/28 07:21:57;;;;;;;60.47;56.15;;;;;;;;;;5012150;28;20406;-64
2022/12/28 07:24:23;;;;;;;62.22;57.83;;;;;;;;;;5011366;28;20057;-62
2022/12/28 07:26:49;;;;;;;64.03;59.53;;;;;;;;;;5012205;28;20022;-62
2022/12/28 07:29:15;;;;;;;60.58;56.28;;;;;;;;;;5011892;28;20022;-64
2022/12/28 07:31:41;;;;;;;61.00;56.70;;;;;;;;;;5012079;28;20149;-59
2022/12/28 07:34:07;;;;;;;61.92;57.63;;;;;;;;;;5011697;28;20076;-60
2022/12/28 07:36:33;;;;;;;60.95;56.47;;;;;;;;;;5011978;28;20378;-62
2022/12/28 07:39:00;;;;;;;60.72;56.33;;;;;;;;;;5011711;28;20029;-64
2022/12/28 07:41:27;;;;;;;59.13;54.85;;;;;;;;;;5011458;28;20423;-63
2022/12/28 07:43:54;;;;;;;58.22;54.05;;;;;;;;;;5009443;28;20022;-60
2022/12/28 07:46:21;;;;;;;59.88;55.63;;;;;;;;;;5011718;28;20025;-64
2022/12/28 07:48:47;;;;;;;58.75;54.55;;;;;;;;;;5011826;28;20045;-65
2022/12/28 07:51:15;;;;;;;58.08;54.15;;;;;;;;;;5010215;28;20482;-63
2022/12/28 07:53:42;;;;;;;59.22;54.97;;;;;;;;;;5011121;28;20394;-65
2022/12/28 07:56:08;;;;;;;59.75;55.42;;;;;;;;;;5010479;28;20508;-63
2022/12/28 07:58:34;;;;;;;58.97;54.78;;;;;;;;;;5011829;28;20034;-63
2022/12/28 08:01:14;;;;;;;59.78;55.38;;;;;;;;;;5010396;28;20044;-63
2022/12/28 08:03:41;;;;;;;59.28;55.13;;;;;;;;;;5009621;28;20105;-64
2022/12/28 08:06:21;;;;;;;58.58;54.35;;;;;;;;;;5011820;28;20113;-63
2022/12/28 08:08:49;;;;;;;59.72;55.42;;;;;;;;;;5011682;28;20032;-62
2022/12/28 08:11:16;;;;;;;58.97;54.70;;;;;;;;;;5013983;28;20461;-62
2022/12/28 08:13:43;;;;;;;59.00;54.60;;;;;;;;;;5014976;28;20084;-62
2022/12/28 08:16:10;;;;;;;58.45;54.08;;;;;;;;;;5016023;28;20038;-62
2022/12/28 08:18:36;;;;;;;59.78;55.30;;;;;;;;;;5015595;28;20475;-66
2022/12/28 08:21:03;;;;;;;57.45;53.25;;;;;;;;;;5015210;28;20022;-66
2022/12/28 08:23:29;;;;;;;57.30;53.05;;;;;;;;;;5014656;28;20720;-66
2022/12/28 08:25:55;;;;;;;58.00;53.75;;;;;;;;;;5015264;28;20029;-66
2022/12/28 08:28:22;;;;;;;59.97;55.55;;;;;;;;;;5015439;28;20390;-64
2022/12/28 08:30:48;;;;;;;57.47;53.20;;;;;;;;;;5015117;28;20049;-63
2022/12/28 08:33:14;;;;;;;59.10;54.90;;;;;;;;;;5014552;28;20033;-62
2022/12/28 08:35:40;;;;;;;60.63;56.22;;;;;;;;;;5015322;28;20054;-62
2022/12/28 08:38:06;;;;;;;59.35;55.05;;;;;;;;;;5015516;28;20030;-62
2022/12/28 08:40:32;;;;;;;58.67;54.33;;;;;;;;;;5015398;28;20176;-60
2022/12/28 08:42:58;;;;;;;59.53;55.05;;;;;;;;;;5015210;28;20022;-61
2022/12/28 08:45:25;;;;;;;60.55;55.80;;;;;;;;;;5013469;28;20026;-63
2022/12/28 08:47:51;;;;;;;58.75;54.45;;;;;;;;;;5014953;28;20029;-62
2022/12/28 08:50:17;;;;;;;58.50;53.83;;;;;;;;;;5014871;28;20041;-62
2022/12/28 08:52:43;;;;;;;59.80;55.20;;;;;;;;;;5014946;28;20030;-61
2022/12/28 08:55:09;;;;;;;61.10;56.35;;;;;;;;;;5014242;28;20042;-63
2022/12/28 08:57:35;;;;;;;57.42;53.25;;;;;;;;;;5014955;28;20108;-61
2022/12/28 09:00:02;;;;;;;57.75;53.45;;;;;;;;;;5013335;28;20051;-59
2022/12/28 09:02:28;;;;;;;58.17;53.88;;;;;;;;;;5014915;28;20540;-61
2022/12/28 09:04:54;;;;;;;55.42;51.33;;;;;;;;;;5013988;28;20057;-60
2022/12/28 09:07:20;;;;;;;56.88;52.67;;;;;;;;;;5014625;28;20521;-59
2022/12/28 09:09:46;;;;;;;55.50;51.35;;;;;;;;;;5014616;28;20049;-58
2022/12/28 09:12:12;;;;;;;55.03;51.03;;;;;;;;;;5015104;28;20022;-58
2022/12/28 09:14:38;;;;;;;57.55;53.45;;;;;;;;;;5016656;28;20052;-57
2022/12/28 09:17:04;;;;;;;57.55;53.35;;;;;;;;;;5016287;28;20022;-53
2022/12/28 09:19:30;;;;;;;57.28;52.85;;;;;;;;;;5014595;28;20498;-58
2022/12/28 09:21:56;;;;;;;55.85;51.72;;;;;;;;;;5012694;28;20069;-60
2022/12/28 09:24:22;;;;;;;55.33;51.33;;;;;;;;;;5012489;28;20026;-59
2022/12/28 09:26:51;;;;;;;56.55;52.45;;;;;;;;;;5014479;28;20018;-59
2022/12/28 09:29:17;;;;;;;53.92;49.90;;;;;;;;;;5014312;28;20018;-55
2022/12/28 09:31:43;;;;;;;54.95;50.88;;;;;;;;;;5013098;28;20034;-56
2022/12/28 09:34:11;;;;;;;52.35;48.45;;;;;;;;;;5013472;28;20026;-59
2022/12/28 09:36:39;;;;;;;52.40;48.45;;;;;;;;;;5014002;28;20044;-56
2022/12/28 09:39:12;;;;;;;51.60;47.65;;;;;;;;;;5014187;28;20026;-58
2022/12/28 09:41:44;;;;;;;52.58;48.83;;;;;;;;;;5014080;28;20030;-57
2022/12/28 09:44:16;;;;;;;52.53;48.75;;;;;;;;;;5013228;28;20101;-55
2022/12/28 09:46:43;;;;;;;52.65;48.85;;;;;;;;;;5013866;28;20080;-59
2022/12/28 09:49:12;;;;;;;51.30;47.35;;;;;;;;;;5013744;28;20434;-60
2022/12/28 09:51:43;;;;;;;54.13;50.20;;;;;;;;;;5013818;28;20113;-59
2022/12/28 09:54:09;;;;;;;50.80;47.20;;;;;;;;;;5013250;28;20390;-58
2022/12/28 09:56:40;;;;;;;54.05;50.15;;;;;;;;;;5013590;28;20028;-58
2022/12/28 09:59:06;;;;;;;53.58;49.45;;;;;;;;;;5012302;28;20032;-57
2022/12/28 10:01:35;;;;;;;53.38;49.53;;;;;;;;;;5013474;28;20030;-55
2022/12/28 10:04:01;;;;;;;53.75;49.75;;;;;;;;;;5012846;28;20034;-60
2022/12/28 10:06:30;;;;;;;52.63;48.65;;;;;;;;;;5013394;28;20022;-57
2022/12/28 10:08:58;;;;;;;49.13;45.45;;;;;;;;;;5013645;28;20041;-57
2022/12/28 10:11:26;;;;;;;48.00;44.53;;;;;;;;;;5013358;28;20018;-59
2022/12/28 10:13:55;;;;;;;50.00;46.05;;;;;;;;;;5012767;28;20026;-56
2022/12/28 10:16:22;;;;;;;47.88;44.47;;;;;;;;;;5013234;28;20046;-55
2022/12/28 10:18:48;;;;;;;49.67;46.13;;;;;;;;;;5013240;28;20025;-54
2022/12/28 10:21:19;;;;;;;48.92;45.42;;;;;;;;;;5013198;28;20025;-55
2022/12/28 10:23:47;;;;;;;49.10;45.60;;;;;;;;;;5012882;28;20541;-58
2022/12/28 10:26:18;;;;;;;50.08;46.58;;;;;;;;;;5013357;28;20022;-59
2022/12/28 10:28:47;;;;;;;49.72;46.33;;;;;;;;;;5012984;28;20022;-57
2022/12/28 10:31:15;;;;;;;50.63;47.13;;;;;;;;;;5012899;28;20088;-56
2022/12/28 10:33:48;;;;;;;50.83;47.33;;;;;;;;;;5012016;28;20071;-59
2022/12/28 10:36:15;;;;;;;52.33;48.75;;;;;;;;;;5011543;28;20030;-55
2022/12/28 10:38:42;;;;;;;53.17;49.58;;;;;;;;;;5012836;28;20433;-61
2022/12/28 10:41:15;;;;;;;52.22;48.60;;;;;;;;;;5013058;28;20033;-55
2022/12/28 10:43:42;;;;;;;52.65;48.95;;;;;;;;;;5012132;28;20017;-59
2022/12/28 10:46:18;;;;;;;52.03;48.35;;;;;;;;;;5013749;28;20026;-57
2022/12/28 10:48:51;;;;;;;50.95;47.35;;;;;;;;;;5012688;28;20032;-57
2022/12/28 10:51:18;;;;;;;50.05;46.65;;;;;;;;;;5012420;28;20025;-57
2022/12/28 10:53:46;;;;;;;51.45;47.88;;;;;;;;;;5012249;28;20041;-60
2022/12/28 10:56:12;;;;;;;50.65;47.15;;;;;;;;;;5012847;28;20509;-55
2022/12/28 10:58:42;;;;;;;51.25;47.47;;;;;;;;;;5012653;28;20038;-58
2022/12/28 11:01:11;;;;;;;50.85;47.17;;;;;;;;;;5012441;28;20398;-58
2022/12/28 11:03:38;;;;;;;49.30;45.78;;;;;;;;;;5011651;28;20087;-57
2022/12/28 11:06:09;;;;;;;49.00;45.35;;;;;;;;;;5012390;28;20039;-58
2022/12/28 11:08:35;;;;;;;46.85;43.45;;;;;;;;;;5011026;28;20033;-59
2022/12/28 11:11:01;;;;;;;43.38;40.28;;;;;;;;;;5012422;28;20038;-58
2022/12/28 11:13:27;;;;;;;46.25;42.95;;;;;;;;;;5011734;28;20042;-56
2022/12/28 11:15:53;;;;;;;42.50;39.30;;;;;;;;;;5012706;28;20343;-56
2022/12/28 11:18:20;;;;;;;42.25;39.15;;;;;;;;;;5012070;28;20030;-57
2022/12/28 11:20:50;;;;;;;40.45;37.45;;;;;;;;;;5012300;28;20037;-56
2022/12/28 11:23:20;;;;;;;34.17;31.48;;;;;;;;;;5011209;28;20390;-57
2022/12/28 11:25:46;;;;;;;31.30;28.70;;;;;;;;;;5012124;28;20022;-56
2022/12/28 11:28:17;;;;;;;31.50;28.98;;;;;;;;;;5008783;28;20036;-56
2022/12/28 11:30:44;;;;;;;32.10;29.60;;;;;;;;;;5011518;28;20026;-55
2022/12/28 11:33:29;;;;;;;29.67;27.27;;;;;;;;;;5010621;28;20088;-56
2022/12/28 11:35:55;;;;;;;29.02;26.70;;;;;;;;;;5010705;28;20026;-54
2022/12/28 11:38:40;;;;;;;29.30;26.90;;;;;;;;;;5012244;28;20037;-60
2022/12/28 11:41:09;;;;;;;28.05;25.67;;;;;;;;;;5011233;28;20084;-56
2022/12/28 11:43:38;;;;;;;;;;;;;;;;;;5011328;28;20037;-57
2022/12/28 11:46:05;;;;;;;27.50;25.13;;;;;;;;;;5010602;28;20274;-61
2022/12/28 11:48:37;;;;;;;26.73;24.33;;;;;;;;;;5010938;28;20018;-58
2022/12/28 11:51:18;;;;;;;25.85;23.52;;;;;;;;;;5010521;28;20026;-55
2022/12/28 11:53:44;;;;;;;24.90;22.60;;;;;;;;;;5010286;28;20076;-56
2022/12/28 11:56:11;;;;;;;25.60;23.30;;;;;;;;;;5011270;28;20034;-54
2022/12/28 11:58:41;;;;;;;26.10;23.80;;;;;;;;;;5011412;28;20030;-54
2022/12/28 12:01:32;;;;;;;26.95;24.65;;;;;;;;;;5010876;28;20034;-61
2022/12/28 12:03:58;;;;;;;28.02;24.58;;;;;;;;;;5001249;28;20034;-57
2022/12/28 12:06:42;;;;;;;27.65;25.15;;;;;;;;;;5011286;28;20030;-60
2022/12/28 12:09:20;;;;;;;30.48;27.98;;;;;;;;;;5010934;28;20037;-58
2022/12/28 12:11:50;;;;;;;31.02;28.52;;;;;;;;;;5009751;28;20481;-54
2022/12/28 12:14:43;;;;;;;32.65;29.95;;;;;;;;;;5010102;28;20038;-58
2022/12/28 12:17:24;;;;;;;33.20;30.50;;;;;;;;;;5007321;28;20034;-61
2022/12/28 12:19:52;;;;;;;33.00;30.40;;;;;;;;;;5010680;28;20371;-58
2022/12/28 12:22:23;;;;;;;34.80;32.08;;;;;;;;;;5010676;28;20026;-58
2022/12/28 12:24:54;;;;;;;34.85;32.17;;;;;;;;;;5010241;28;20029;-57
2022/12/28 12:27:26;;;;;;;38.00;35.00;;;;;;;;;;5010717;28;20127;-57
2022/12/28 12:30:27;;;;;;;37.00;34.30;;;;;;;;;;5010904;28;20034;-58
2022/12/28 12:32:53;;;;;;;37.10;34.35;;;;;;;;;;4931222;29;20035;-57
2022/12/28 12:35:21;;;;;;;39.35;36.35;;;;;;;;;;4994287;28;20159;-57
2022/12/28 12:37:55;;;;;;;39.08;36.28;;;;;;;;;;5010980;28;20048;-55
2022/12/28 12:40:40;;;;;;;43.72;40.63;;;;;;;;;;5010548;28;20065;-58
2022/12/28 12:43:09;;;;;;;48.83;45.53;;;;;;;;;;5010631;28;20101;-57
2022/12/28 12:45:54;;;;;;;50.25;46.67;;;;;;;;;;5010931;28;20018;-55
2022/12/28 12:48:40;;;;;;;49.72;46.22;;;;;;;;;;5010162;28;20062;-62
2022/12/28 12:51:28;;;;;;;52.20;48.65;;;;;;;;;;5010163;28;20440;-61
2022/12/28 12:53:53;;;;;;;51.63;48.22;;;;;;;;;;5010068;28;20068;-60
2022/12/28 12:56:19;;;;;;;54.50;50.78;;;;;;;;;;5011465;28;20050;-60
2022/12/28 12:58:57;;;;;;;56.25;52.47;;;;;;;;;;5012768;28;20026;-60
2022/12/28 13:01:23;;;;;;;59.27;55.27;;;;;;;;;;5013873;28;20034;-60
2022/12/28 13:03:50;;;;;;;59.53;55.50;;;;;;;;;;5012315;28;20300;-60
2022/12/28 13:06:17;;;;;;;57.72;53.85;;;;;;;;;;5014122;28;20108;-60
2022/12/28 13:08:47;;;;;;;54.77;51.07;;;;;;;;;;5013844;28;20033;-56
2022/12/28 13:11:13;;;;;;;58.47;54.63;;;;;;;;;;5014061;28;20461;-61
2022/12/28 13:13:40;;;;;;;57.90;53.97;;;;;;;;;;5013189;28;20033;-62
2022/12/28 13:16:25;;;;;;;57.67;53.88;;;;;;;;;;5013545;28;20030;-59
2022/12/28 13:18:54;;;;;;;59.90;56.00;;;;;;;;;;5013782;28;20033;-62
2022/12/28 13:21:21;;;;;;;63.20;59.00;;;;;;;;;;5013695;28;20030;-59
2022/12/28 13:23:47;;;;;;;59.88;55.72;;;;;;;;;;5012678;28;20036;-65
2022/12/28 13:26:14;;;;;;;57.80;54.00;;;;;;;;;;5013831;28;20101;-66
2022/12/28 13:29:07;;;;;;;56.70;52.80;;;;;;;;;;5012461;28;20401;-61
2022/12/28 13:31:33;;;;;;;56.20;52.45;;;;;;;;;;5013643;28;20022;-63
2022/12/28 13:34:01;;;;;;;56.72;53.00;;;;;;;;;;5013112;28;20455;-63
2022/12/28 13:36:27;;;;;;;54.67;50.83;;;;;;;;;;5013705;28;20133;-63
2022/12/28 13:39:10;;;;;;;53.03;49.22;;;;;;;;;;5013247;28;20037;-62
2022/12/28 13:41:36;;;;;;;52.30;48.60;;;;;;;;;;5012803;28;20030;-63
2022/12/28 13:44:15;;;;;;;53.85;50.10;;;;;;;;;;5011811;28;20061;-63
2022/12/28 13:46:44;;;;;;;53.13;49.60;;;;;;;;;;5012502;28;20029;-61
2022/12/28 13:49:11;;;;;;;51.53;48.13;;;;;;;;;;5012004;28;20030;-62
2022/12/28 13:51:38;;;;;;;49.45;46.05;;;;;;;;;;5012275;28;20029;-61
2022/12/28 13:54:05;;;;;;;50.13;46.38;;;;;;;;;;5012330;28;20022;-62
2022/12/28 13:56:32;;;;;;;48.72;45.45;;;;;;;;;;5013116;28;20053;-61
2022/12/28 13:59:03;;;;;;;47.17;43.90;;;;;;;;;;5013397;28;20085;-60
2022/12/28 14:01:32;;;;;;;47.97;44.70;;;;;;;;;;5011427;28;20034;-64
2022/12/28 14:04:04;;;;;;;43.60;40.50;;;;;;;;;;5011912;28;20030;-61
2022/12/28 14:06:30;;;;;;;41.90;38.90;;;;;;;;;;5012751;28;20042;-61
2022/12/28 14:08:57;;;;;;;43.22;39.95;;;;;;;;;;5012328;28;20058;-62
2022/12/28 14:11:23;;;;;;;41.38;38.38;;;;;;;;;;5011611;28;20037;-62
2022/12/28 14:13:49;;;;;;;42.45;39.35;;;;;;;;;;5012130;28;20405;-61
2022/12/28 14:16:15;;;;;;;43.08;39.88;;;;;;;;;;5012701;28;20724;-60
2022/12/28 14:18:42;;;;;;;41.60;38.65;;;;;;;;;;5011402;28;20084;-63
2022/12/28 14:21:08;;;;;;;39.45;36.75;;;;;;;;;;5012839;28;20469;-62
2022/12/28 14:23:35;;;;;;;37.10;34.30;;;;;;;;;;5012514;28;20034;-61
2022/12/28 14:26:18;;;;;;;33.50;30.80;;;;;;;;;;5013243;28;20030;-63
2022/12/28 14:28:50;;;;;;;31.70;29.20;;;;;;;;;;5013093;28;20022;-62
2022/12/28 14:31:20;;;;;;;31.20;28.70;;;;;;;;;;5012810;28;20414;-64
2022/12/28 14:33:55;;;;;;;31.27;28.67;;;;;;;;;;5011940;28;20040;-64
2022/12/28 14:36:23;;;;;;;31.95;29.25;;;;;;;;;;5010967;28;20034;-64
2022/12/28 14:38:51;;;;;;;30.83;28.17;;;;;;;;;;5012798;28;20533;-62
2022/12/28 14:41:23;;;;;;;30.02;27.42;;;;;;;;;;5012865;28;20110;-62
2022/12/28 14:43:56;;;;;;;29.40;26.95;;;;;;;;;;5011550;28;20026;-64
2022/12/28 14:46:35;;;;;;;29.25;26.85;;;;;;;;;;5012355;28;20032;-64
2022/12/28 14:49:20;;;;;;;28.27;25.98;;;;;;;;;;5011429;28;20378;-58
2022/12/28 14:51:46;;;;;;;27.45;25.15;;;;;;;;;;5012334;28;20014;-62